sensor_id;sensor_type;location;lat;lon;timestamp;P1;durP1;ratioP1;P2;durP2;ratioP2
34928;SDS011;21133;48.048;7.724;2023-02-08T00:01:19;11.13;;;7.80;;
34928;SDS011;21133;48.048;7.724;2023-02-08T00:03:46;11.83;;;8.60;;
34928;SDS011;21133;48.048;7.724;2023-02-08T00:06:12;8.90;;;6.90;;
34928;SDS011;21133;48.048;7.724;2023-02-08T00:08:38;11.97;;;7.27;;
34928;SDS011;21133;48.048;7.724;2023-02-08T00:11:05;6.90;;;6.40;;
34928;SDS011;21133;48.048;7.724;2023-02-08T00:13:31;6.90;;;6.27;;
34928;SDS011;21133;48.048;7.724;2023-02-08T00:15:57;8.43;;;6.40;;
34928;SDS011;21133;48.048;7.724;2023-02-08T00:18:23;7.20;;;6.17;;
34928;SDS011;21133;48.048;7.724;2023-02-08T00:20:49;11.73;;;5.90;;
34928;SDS011;21133;48.048;7.724;2023-02-08T00:23:15;14.40;;;6.20;;
34928;SDS011;21133;48.048;7.724;2023-02-08T00:25:41;7.30;;;6.60;;
34928;SDS011;21133;48.048;7.724;2023-02-08T00:28:08;6.33;;;5.83;;
34928;SDS011;21133;48.048;7.724;2023-02-08T00:30:36;7.20;;;6.10;;
34928;SDS011;21133;48.048;7.724;2023-02-08T00:33:02;7.33;;;6.73;;
34928;SDS011;21133;48.048;7.724;2023-02-08T00:35:28;6.47;;;5.83;;
34928;SDS011;21133;48.048;7.724;2023-02-08T00:37:55;15.97;;;7.80;;
34928;SDS011;21133;48.048;7.724;2023-02-08T00:40:20;11.10;;;8.83;;
34928;SDS011;21133;48.048;7.724;2023-02-08T00:42:46;11.53;;;9.17;;
34928;SDS011;21133;48.048;7.724;2023-02-08T00:45:12;10.73;;;9.00;;
34928;SDS011;21133;48.048;7.724;2023-02-08T00:47:38;11.00;;;8.70;;
34928;SDS011;21133;48.048;7.724;2023-02-08T00:50:04;17.13;;;9.80;;
34928;SDS011;21133;48.048;7.724;2023-02-08T00:52:31;17.67;;;11.23;;
34928;SDS011;21133;48.048;7.724;2023-02-08T00:54:56;17.50;;;11.63;;
34928;SDS011;21133;48.048;7.724;2023-02-08T00:57:22;18.83;;;9.70;;
34928;SDS011;21133;48.048;7.724;2023-02-08T00:59:48;17.27;;;10.77;;
34928;SDS011;21133;48.048;7.724;2023-02-08T01:02:15;12.73;;;9.43;;
34928;SDS011;21133;48.048;7.724;2023-02-08T01:04:41;14.90;;;10.17;;
34928;SDS011;21133;48.048;7.724;2023-02-08T01:07:07;27.63;;;14.47;;
34928;SDS011;21133;48.048;7.724;2023-02-08T01:09:33;20.00;;;11.87;;
34928;SDS011;21133;48.048;7.724;2023-02-08T01:11:59;15.50;;;10.43;;
34928;SDS011;21133;48.048;7.724;2023-02-08T01:14:25;22.27;;;11.57;;
34928;SDS011;21133;48.048;7.724;2023-02-08T01:16:51;14.20;;;9.90;;
34928;SDS011;21133;48.048;7.724;2023-02-08T01:19:17;10.87;;;8.57;;
34928;SDS011;21133;48.048;7.724;2023-02-08T01:21:43;8.13;;;7.30;;
34928;SDS011;21133;48.048;7.724;2023-02-08T01:24:10;7.43;;;6.60;;
34928;SDS011;21133;48.048;7.724;2023-02-08T01:26:36;9.60;;;7.40;;
34928;SDS011;21133;48.048;7.724;2023-02-08T01:29:02;8.27;;;6.87;;
34928;SDS011;21133;48.048;7.724;2023-02-08T01:31:29;10.23;;;7.40;;
34928;SDS011;21133;48.048;7.724;2023-02-08T01:33:56;6.73;;;6.13;;
34928;SDS011;21133;48.048;7.724;2023-02-08T01:36:22;6.77;;;6.37;;
34928;SDS011;21133;48.048;7.724;2023-02-08T01:38:49;7.90;;;7.10;;
34928;SDS011;21133;48.048;7.724;2023-02-08T01:41:21;6.87;;;6.30;;
34928;SDS011;21133;48.048;7.724;2023-02-08T01:46:23;8.57;;;7.13;;
34928;SDS011;21133;48.048;7.724;2023-02-08T01:48:49;9.47;;;6.23;;
34928;SDS011;21133;48.048;7.724;2023-02-08T01:51:17;6.80;;;4.83;;
34928;SDS011;21133;48.048;7.724;2023-02-08T01:53:44;10.50;;;5.70;;
34928;SDS011;21133;48.048;7.724;2023-02-08T01:56:11;6.50;;;5.97;;
34928;SDS011;21133;48.048;7.724;2023-02-08T01:58:45;5.73;;;5.23;;
34928;SDS011;21133;48.048;7.724;2023-02-08T02:01:13;3.47;;;3.37;;
34928;SDS011;21133;48.048;7.724;2023-02-08T02:03:40;6.73;;;6.03;;
34928;SDS011;21133;48.048;7.724;2023-02-08T02:06:10;10.33;;;5.50;;
34928;SDS011;21133;48.048;7.724;2023-02-08T02:08:38;6.30;;;5.30;;
34928;SDS011;21133;48.048;7.724;2023-02-08T02:11:04;6.40;;;5.73;;
34928;SDS011;21133;48.048;7.724;2023-02-08T02:13:30;6.57;;;6.07;;
34928;SDS011;21133;48.048;7.724;2023-02-08T02:15:57;5.27;;;4.87;;
34928;SDS011;21133;48.048;7.724;2023-02-08T02:18:27;7.93;;;5.77;;
34928;SDS011;21133;48.048;7.724;2023-02-08T02:24:03;5.53;;;5.20;;
34928;SDS011;21133;48.048;7.724;2023-02-08T02:45:03;4.63;;;4.43;;
34928;SDS011;21133;48.048;7.724;2023-02-08T02:50:10;5.37;;;4.97;;
34928;SDS011;21133;48.048;7.724;2023-02-08T02:52:39;4.50;;;4.30;;
34928;SDS011;21133;48.048;7.724;2023-02-08T02:55:09;5.87;;;5.30;;
34928;SDS011;21133;48.048;7.724;2023-02-08T02:57:36;4.53;;;4.23;;
34928;SDS011;21133;48.048;7.724;2023-02-08T03:00:07;5.50;;;4.73;;
34928;SDS011;21133;48.048;7.724;2023-02-08T03:02:33;5.00;;;4.60;;
34928;SDS011;21133;48.048;7.724;2023-02-08T03:05:00;4.90;;;4.53;;
34928;SDS011;21133;48.048;7.724;2023-02-08T03:07:33;4.07;;;3.87;;
34928;SDS011;21133;48.048;7.724;2023-02-08T03:15:03;4.97;;;4.57;;
34928;SDS011;21133;48.048;7.724;2023-02-08T03:20:20;5.03;;;4.73;;
34928;SDS011;21133;48.048;7.724;2023-02-08T03:25:18;4.67;;;4.37;;
34928;SDS011;21133;48.048;7.724;2023-02-08T03:27:54;4.93;;;4.37;;
34928;SDS011;21133;48.048;7.724;2023-02-08T03:30:50;4.63;;;4.33;;
34928;SDS011;21133;48.048;7.724;2023-02-08T03:33:20;5.50;;;5.10;;
34928;SDS011;21133;48.048;7.724;2023-02-08T03:35:53;4.80;;;4.40;;
34928;SDS011;21133;48.048;7.724;2023-02-08T03:38:22;5.90;;;5.13;;
34928;SDS011;21133;48.048;7.724;2023-02-08T03:40:51;4.43;;;3.93;;
34928;SDS011;21133;48.048;7.724;2023-02-08T03:43:27;4.20;;;3.97;;
34928;SDS011;21133;48.048;7.724;2023-02-08T03:46:00;4.27;;;4.03;;
34928;SDS011;21133;48.048;7.724;2023-02-08T03:48:27;5.60;;;4.47;;
34928;SDS011;21133;48.048;7.724;2023-02-08T03:50:54;5.30;;;4.90;;
34928;SDS011;21133;48.048;7.724;2023-02-08T03:53:21;4.90;;;4.67;;
34928;SDS011;21133;48.048;7.724;2023-02-08T03:55:49;5.23;;;4.80;;
34928;SDS011;21133;48.048;7.724;2023-02-08T04:00:53;5.23;;;4.80;;
34928;SDS011;21133;48.048;7.724;2023-02-08T04:03:24;5.10;;;4.80;;
34928;SDS011;21133;48.048;7.724;2023-02-08T04:05:51;5.70;;;4.70;;
34928;SDS011;21133;48.048;7.724;2023-02-08T04:08:17;4.53;;;4.23;;
34928;SDS011;21133;48.048;7.724;2023-02-08T04:10:43;4.27;;;4.03;;
34928;SDS011;21133;48.048;7.724;2023-02-08T04:13:10;5.13;;;4.73;;
34928;SDS011;21133;48.048;7.724;2023-02-08T04:15:36;5.30;;;4.97;;
34928;SDS011;21133;48.048;7.724;2023-02-08T04:18:02;4.67;;;4.37;;
34928;SDS011;21133;48.048;7.724;2023-02-08T04:20:28;6.30;;;5.23;;
34928;SDS011;21133;48.048;7.724;2023-02-08T04:22:54;4.13;;;3.83;;
34928;SDS011;21133;48.048;7.724;2023-02-08T04:25:20;4.63;;;4.43;;
34928;SDS011;21133;48.048;7.724;2023-02-08T04:27:46;8.40;;;6.50;;
34928;SDS011;21133;48.048;7.724;2023-02-08T04:30:13;5.43;;;5.00;;
34928;SDS011;21133;48.048;7.724;2023-02-08T04:32:39;4.73;;;4.53;;
34928;SDS011;21133;48.048;7.724;2023-02-08T04:35:05;5.50;;;5.00;;
34928;SDS011;21133;48.048;7.724;2023-02-08T04:37:31;4.90;;;4.60;;
34928;SDS011;21133;48.048;7.724;2023-02-08T04:39:57;6.30;;;5.17;;
34928;SDS011;21133;48.048;7.724;2023-02-08T04:42:23;5.30;;;4.90;;
34928;SDS011;21133;48.048;7.724;2023-02-08T04:44:49;8.80;;;4.63;;
34928;SDS011;21133;48.048;7.724;2023-02-08T04:47:15;7.00;;;5.23;;
34928;SDS011;21133;48.048;7.724;2023-02-08T04:49:41;6.40;;;5.10;;
34928;SDS011;21133;48.048;7.724;2023-02-08T04:52:07;5.33;;;4.43;;
34928;SDS011;21133;48.048;7.724;2023-02-08T04:54:33;5.07;;;4.60;;
34928;SDS011;21133;48.048;7.724;2023-02-08T04:56:59;4.77;;;4.47;;
34928;SDS011;21133;48.048;7.724;2023-02-08T04:59:25;5.60;;;5.17;;
34928;SDS011;21133;48.048;7.724;2023-02-08T05:01:51;6.27;;;5.23;;
34928;SDS011;21133;48.048;7.724;2023-02-08T05:04:17;6.33;;;5.73;;
34928;SDS011;21133;48.048;7.724;2023-02-08T05:06:43;5.23;;;4.97;;
34928;SDS011;21133;48.048;7.724;2023-02-08T05:09:09;6.57;;;4.57;;
34928;SDS011;21133;48.048;7.724;2023-02-08T05:11:35;4.87;;;4.50;;
34928;SDS011;21133;48.048;7.724;2023-02-08T05:14:02;4.30;;;4.10;;
34928;SDS011;21133;48.048;7.724;2023-02-08T05:16:28;5.20;;;4.70;;
34928;SDS011;21133;48.048;7.724;2023-02-08T05:18:54;4.67;;;4.37;;
34928;SDS011;21133;48.048;7.724;2023-02-08T05:21:21;3.63;;;3.53;;
34928;SDS011;21133;48.048;7.724;2023-02-08T05:23:50;6.40;;;5.70;;
34928;SDS011;21133;48.048;7.724;2023-02-08T05:26:16;7.10;;;6.40;;
34928;SDS011;21133;48.048;7.724;2023-02-08T05:28:42;6.13;;;5.63;;
34928;SDS011;21133;48.048;7.724;2023-02-08T05:31:11;6.63;;;6.03;;
34928;SDS011;21133;48.048;7.724;2023-02-08T05:33:38;5.40;;;4.43;;
34928;SDS011;21133;48.048;7.724;2023-02-08T05:36:04;4.93;;;4.57;;
34928;SDS011;21133;48.048;7.724;2023-02-08T05:38:30;4.20;;;4.00;;
34928;SDS011;21133;48.048;7.724;2023-02-08T05:40:56;7.23;;;6.63;;
34928;SDS011;21133;48.048;7.724;2023-02-08T05:43:22;6.00;;;5.13;;
34928;SDS011;21133;48.048;7.724;2023-02-08T05:45:48;4.93;;;4.50;;
34928;SDS011;21133;48.048;7.724;2023-02-08T05:48:15;5.17;;;4.80;;
34928;SDS011;21133;48.048;7.724;2023-02-08T05:50:41;6.50;;;4.80;;
34928;SDS011;21133;48.048;7.724;2023-02-08T05:53:07;6.47;;;5.97;;
34928;SDS011;21133;48.048;7.724;2023-02-08T05:55:33;6.20;;;5.70;;
34928;SDS011;21133;48.048;7.724;2023-02-08T05:57:59;6.27;;;5.77;;
34928;SDS011;21133;48.048;7.724;2023-02-08T06:00:25;9.23;;;6.13;;
34928;SDS011;21133;48.048;7.724;2023-02-08T06:02:52;6.23;;;5.63;;
34928;SDS011;21133;48.048;7.724;2023-02-08T06:05:18;8.83;;;6.90;;
34928;SDS011;21133;48.048;7.724;2023-02-08T06:07:43;6.27;;;5.80;;
34928;SDS011;21133;48.048;7.724;2023-02-08T06:10:10;12.73;;;6.17;;
34928;SDS011;21133;48.048;7.724;2023-02-08T06:12:36;8.30;;;6.87;;
34928;SDS011;21133;48.048;7.724;2023-02-08T06:15:02;11.30;;;7.90;;
34928;SDS011;21133;48.048;7.724;2023-02-08T06:17:28;8.70;;;6.73;;
34928;SDS011;21133;48.048;7.724;2023-02-08T06:19:54;6.20;;;5.63;;
34928;SDS011;21133;48.048;7.724;2023-02-08T06:22:19;14.07;;;6.93;;
34928;SDS011;21133;48.048;7.724;2023-02-08T06:24:45;13.37;;;5.77;;
34928;SDS011;21133;48.048;7.724;2023-02-08T06:27:12;5.63;;;5.23;;
34928;SDS011;21133;48.048;7.724;2023-02-08T06:29:38;8.17;;;5.80;;
34928;SDS011;21133;48.048;7.724;2023-02-08T06:32:04;6.87;;;5.93;;
34928;SDS011;21133;48.048;7.724;2023-02-08T06:34:30;6.60;;;6.00;;
34928;SDS011;21133;48.048;7.724;2023-02-08T06:36:56;7.20;;;6.63;;
34928;SDS011;21133;48.048;7.724;2023-02-08T06:39:26;6.93;;;6.23;;
34928;SDS011;21133;48.048;7.724;2023-02-08T06:41:52;7.60;;;6.40;;
34928;SDS011;21133;48.048;7.724;2023-02-08T06:44:17;6.90;;;6.07;;
34928;SDS011;21133;48.048;7.724;2023-02-08T06:46:43;6.40;;;5.93;;
34928;SDS011;21133;48.048;7.724;2023-02-08T06:49:10;7.90;;;7.20;;
34928;SDS011;21133;48.048;7.724;2023-02-08T06:51:36;6.60;;;6.17;;
34928;SDS011;21133;48.048;7.724;2023-02-08T06:54:02;7.20;;;6.30;;
34928;SDS011;21133;48.048;7.724;2023-02-08T06:56:28;9.37;;;7.70;;
34928;SDS011;21133;48.048;7.724;2023-02-08T06:58:55;6.93;;;6.27;;
34928;SDS011;21133;48.048;7.724;2023-02-08T07:01:21;7.03;;;6.30;;
34928;SDS011;21133;48.048;7.724;2023-02-08T07:03:47;6.70;;;6.20;;
34928;SDS011;21133;48.048;7.724;2023-02-08T07:06:13;8.57;;;6.97;;
34928;SDS011;21133;48.048;7.724;2023-02-08T07:08:39;10.20;;;9.03;;
34928;SDS011;21133;48.048;7.724;2023-02-08T07:11:07;16.80;;;9.97;;
34928;SDS011;21133;48.048;7.724;2023-02-08T07:13:33;11.83;;;8.43;;
34928;SDS011;21133;48.048;7.724;2023-02-08T07:15:59;9.73;;;7.97;;
34928;SDS011;21133;48.048;7.724;2023-02-08T07:18:24;15.70;;;8.30;;
34928;SDS011;21133;48.048;7.724;2023-02-08T07:20:50;8.30;;;7.17;;
34928;SDS011;21133;48.048;7.724;2023-02-08T07:23:17;8.90;;;7.97;;
34928;SDS011;21133;48.048;7.724;2023-02-08T07:25:42;18.40;;;10.53;;
34928;SDS011;21133;48.048;7.724;2023-02-08T07:28:09;10.37;;;7.30;;
34928;SDS011;21133;48.048;7.724;2023-02-08T07:30:36;12.70;;;8.57;;
34928;SDS011;21133;48.048;7.724;2023-02-08T07:33:02;7.93;;;6.73;;
34928;SDS011;21133;48.048;7.724;2023-02-08T07:35:28;7.47;;;5.67;;
34928;SDS011;21133;48.048;7.724;2023-02-08T07:37:54;8.27;;;7.20;;
34928;SDS011;21133;48.048;7.724;2023-02-08T07:40:19;6.90;;;6.30;;
34928;SDS011;21133;48.048;7.724;2023-02-08T07:42:45;9.63;;;7.20;;
34928;SDS011;21133;48.048;7.724;2023-02-08T07:45:11;7.03;;;6.40;;
34928;SDS011;21133;48.048;7.724;2023-02-08T07:47:37;6.63;;;6.03;;
34928;SDS011;21133;48.048;7.724;2023-02-08T07:50:03;7.73;;;6.17;;
34928;SDS011;21133;48.048;7.724;2023-02-08T07:52:30;8.97;;;6.20;;
34928;SDS011;21133;48.048;7.724;2023-02-08T07:54:56;7.23;;;6.63;;
34928;SDS011;21133;48.048;7.724;2023-02-08T07:57:22;9.10;;;7.07;;
34928;SDS011;21133;48.048;7.724;2023-02-08T07:59:48;7.63;;;6.57;;
34928;SDS011;21133;48.048;7.724;2023-02-08T08:02:14;7.63;;;6.00;;
34928;SDS011;21133;48.048;7.724;2023-02-08T08:04:40;7.50;;;6.40;;
34928;SDS011;21133;48.048;7.724;2023-02-08T08:07:06;8.20;;;7.40;;
34928;SDS011;21133;48.048;7.724;2023-02-08T08:09:32;6.87;;;6.47;;
34928;SDS011;21133;48.048;7.724;2023-02-08T08:11:58;8.13;;;7.30;;
34928;SDS011;21133;48.048;7.724;2023-02-08T08:14:24;7.40;;;6.70;;
34928;SDS011;21133;48.048;7.724;2023-02-08T08:16:50;9.40;;;6.30;;
34928;SDS011;21133;48.048;7.724;2023-02-08T08:19:16;16.90;;;7.37;;
34928;SDS011;21133;48.048;7.724;2023-02-08T08:21:42;7.80;;;7.10;;
34928;SDS011;21133;48.048;7.724;2023-02-08T08:24:08;6.97;;;6.37;;
34928;SDS011;21133;48.048;7.724;2023-02-08T08:26:33;9.77;;;6.50;;
34928;SDS011;21133;48.048;7.724;2023-02-08T08:28:59;7.70;;;7.00;;
34928;SDS011;21133;48.048;7.724;2023-02-08T08:31:27;10.10;;;6.40;;
34928;SDS011;21133;48.048;7.724;2023-02-08T08:33:54;8.03;;;6.97;;
34928;SDS011;21133;48.048;7.724;2023-02-08T08:36:21;7.03;;;6.43;;
34928;SDS011;21133;48.048;7.724;2023-02-08T08:38:46;9.63;;;8.83;;
34928;SDS011;21133;48.048;7.724;2023-02-08T08:41:14;8.20;;;7.13;;
34928;SDS011;21133;48.048;7.724;2023-02-08T08:43:46;7.70;;;6.47;;
34928;SDS011;21133;48.048;7.724;2023-02-08T08:46:12;7.10;;;6.40;;
34928;SDS011;21133;48.048;7.724;2023-02-08T08:48:39;9.30;;;7.17;;
34928;SDS011;21133;48.048;7.724;2023-02-08T08:51:05;9.23;;;6.83;;
34928;SDS011;21133;48.048;7.724;2023-02-08T08:53:43;9.80;;;7.17;;
34928;SDS011;21133;48.048;7.724;2023-02-08T08:56:09;11.10;;;7.53;;
34928;SDS011;21133;48.048;7.724;2023-02-08T08:58:35;8.70;;;7.00;;
34928;SDS011;21133;48.048;7.724;2023-02-08T09:01:01;10.13;;;7.93;;
34928;SDS011;21133;48.048;7.724;2023-02-08T09:03:27;8.37;;;6.87;;
34928;SDS011;21133;48.048;7.724;2023-02-08T09:05:53;9.40;;;8.03;;
34928;SDS011;21133;48.048;7.724;2023-02-08T09:08:20;9.63;;;7.50;;
34928;SDS011;21133;48.048;7.724;2023-02-08T09:10:45;8.83;;;6.30;;
34928;SDS011;21133;48.048;7.724;2023-02-08T09:13:11;8.27;;;6.23;;
34928;SDS011;21133;48.048;7.724;2023-02-08T09:15:43;7.43;;;6.47;;
34928;SDS011;21133;48.048;7.724;2023-02-08T09:18:09;10.27;;;7.73;;
34928;SDS011;21133;48.048;7.724;2023-02-08T09:20:38;10.40;;;6.27;;
34928;SDS011;21133;48.048;7.724;2023-02-08T09:23:07;7.83;;;7.03;;
34928;SDS011;21133;48.048;7.724;2023-02-08T09:25:34;9.13;;;7.70;;
34928;SDS011;21133;48.048;7.724;2023-02-08T09:28:00;13.80;;;8.60;;
34928;SDS011;21133;48.048;7.724;2023-02-08T09:30:29;8.10;;;7.07;;
34928;SDS011;21133;48.048;7.724;2023-02-08T09:32:55;6.87;;;6.20;;
34928;SDS011;21133;48.048;7.724;2023-02-08T09:35:20;10.67;;;7.60;;
34928;SDS011;21133;48.048;7.724;2023-02-08T09:37:46;7.67;;;7.00;;
34928;SDS011;21133;48.048;7.724;2023-02-08T09:40:22;8.00;;;7.10;;
34928;SDS011;21133;48.048;7.724;2023-02-08T09:42:59;10.70;;;6.70;;
34928;SDS011;21133;48.048;7.724;2023-02-08T09:50:26;5.50;;;4.97;;
34928;SDS011;21133;48.048;7.724;2023-02-08T09:53:12;5.30;;;4.90;;
34928;SDS011;21133;48.048;7.724;2023-02-08T09:55:41;8.77;;;6.67;;
34928;SDS011;21133;48.048;7.724;2023-02-08T09:58:20;6.43;;;4.97;;
34928;SDS011;21133;48.048;7.724;2023-02-08T10:00:47;5.50;;;5.10;;
34928;SDS011;21133;48.048;7.724;2023-02-08T10:05:46;7.00;;;5.70;;
34928;SDS011;21133;48.048;7.724;2023-02-08T10:08:12;6.60;;;5.60;;
34928;SDS011;21133;48.048;7.724;2023-02-08T10:10:54;6.33;;;4.53;;
34928;SDS011;21133;48.048;7.724;2023-02-08T10:13:28;7.53;;;5.40;;
34928;SDS011;21133;48.048;7.724;2023-02-08T10:16:01;4.77;;;4.57;;
34928;SDS011;21133;48.048;7.724;2023-02-08T10:18:55;6.70;;;6.10;;
34928;SDS011;21133;48.048;7.724;2023-02-08T10:26:39;6.33;;;5.73;;
34928;SDS011;21133;48.048;7.724;2023-02-08T10:29:28;5.40;;;4.90;;
34928;SDS011;21133;48.048;7.724;2023-02-08T10:32:04;7.40;;;4.77;;
34928;SDS011;21133;48.048;7.724;2023-02-08T10:34:38;5.60;;;5.10;;
34928;SDS011;21133;48.048;7.724;2023-02-08T10:39:51;4.50;;;4.30;;
34928;SDS011;21133;48.048;7.724;2023-02-08T10:42:18;4.37;;;4.00;;
34928;SDS011;21133;48.048;7.724;2023-02-08T10:45:00;4.67;;;4.33;;
34928;SDS011;21133;48.048;7.724;2023-02-08T10:52:27;4.17;;;4.00;;
34928;SDS011;21133;48.048;7.724;2023-02-08T10:54:53;5.97;;;5.47;;
34928;SDS011;21133;48.048;7.724;2023-02-08T10:57:21;4.67;;;4.27;;
34928;SDS011;21133;48.048;7.724;2023-02-08T10:59:48;7.10;;;5.20;;
34928;SDS011;21133;48.048;7.724;2023-02-08T11:02:22;8.30;;;5.70;;
34928;SDS011;21133;48.048;7.724;2023-02-08T11:05:10;5.30;;;5.00;;
34928;SDS011;21133;48.048;7.724;2023-02-08T11:07:37;5.37;;;4.93;;
34928;SDS011;21133;48.048;7.724;2023-02-08T11:12:55;4.77;;;4.47;;
34928;SDS011;21133;48.048;7.724;2023-02-08T11:15:26;6.40;;;5.53;;
34928;SDS011;21133;48.048;7.724;2023-02-08T11:17:54;5.87;;;5.37;;
34928;SDS011;21133;48.048;7.724;2023-02-08T11:20:26;5.37;;;4.97;;
34928;SDS011;21133;48.048;7.724;2023-02-08T11:22:53;5.80;;;5.23;;
34928;SDS011;21133;48.048;7.724;2023-02-08T11:25:29;5.80;;;4.53;;
34928;SDS011;21133;48.048;7.724;2023-02-08T11:27:56;5.53;;;5.13;;
34928;SDS011;21133;48.048;7.724;2023-02-08T11:30:24;8.03;;;5.03;;
34928;SDS011;21133;48.048;7.724;2023-02-08T11:33:11;4.80;;;4.50;;
34928;SDS011;21133;48.048;7.724;2023-02-08T11:35:36;5.40;;;4.47;;
34928;SDS011;21133;48.048;7.724;2023-02-08T11:38:02;5.00;;;4.70;;
34928;SDS011;21133;48.048;7.724;2023-02-08T11:40:34;6.10;;;5.50;;
34928;SDS011;21133;48.048;7.724;2023-02-08T11:43:01;6.10;;;5.60;;
34928;SDS011;21133;48.048;7.724;2023-02-08T11:45:28;9.80;;;4.77;;
34928;SDS011;21133;48.048;7.724;2023-02-08T11:47:55;6.07;;;4.87;;
34928;SDS011;21133;48.048;7.724;2023-02-08T11:50:25;4.40;;;4.17;;
34928;SDS011;21133;48.048;7.724;2023-02-08T11:53:00;4.40;;;4.17;;
34928;SDS011;21133;48.048;7.724;2023-02-08T11:55:29;4.50;;;4.20;;
34928;SDS011;21133;48.048;7.724;2023-02-08T11:58:05;5.87;;;5.30;;
34928;SDS011;21133;48.048;7.724;2023-02-08T12:00:42;20.10;;;10.40;;
34928;SDS011;21133;48.048;7.724;2023-02-08T12:03:25;5.27;;;4.97;;
34928;SDS011;21133;48.048;7.724;2023-02-08T12:08:38;3.83;;;3.57;;
34928;SDS011;21133;48.048;7.724;2023-02-08T12:11:08;14.33;;;5.37;;
34928;SDS011;21133;48.048;7.724;2023-02-08T12:13:46;4.63;;;4.20;;
34928;SDS011;21133;48.048;7.724;2023-02-08T12:18:51;11.37;;;4.90;;
34928;SDS011;21133;48.048;7.724;2023-02-08T12:29:23;5.57;;;5.07;;
34928;SDS011;21133;48.048;7.724;2023-02-08T12:31:59;5.67;;;5.27;;
34928;SDS011;21133;48.048;7.724;2023-02-08T12:34:44;15.43;;;5.37;;
34928;SDS011;21133;48.048;7.724;2023-02-08T12:40:26;4.77;;;4.43;;
34928;SDS011;21133;48.048;7.724;2023-02-08T12:48:26;15.87;;;5.73;;
34928;SDS011;21133;48.048;7.724;2023-02-08T12:51:07;5.53;;;5.13;;
34928;SDS011;21133;48.048;7.724;2023-02-08T12:53:37;5.97;;;5.40;;
34928;SDS011;21133;48.048;7.724;2023-02-08T12:56:06;5.23;;;4.83;;
34928;SDS011;21133;48.048;7.724;2023-02-08T13:01:41;5.23;;;4.50;;
34928;SDS011;21133;48.048;7.724;2023-02-08T13:04:10;6.00;;;4.90;;
34928;SDS011;21133;48.048;7.724;2023-02-08T13:06:42;5.20;;;4.70;;
34928;SDS011;21133;48.048;7.724;2023-02-08T13:11:56;6.70;;;5.97;;
34928;SDS011;21133;48.048;7.724;2023-02-08T13:14:26;7.93;;;6.40;;
34928;SDS011;21133;48.048;7.724;2023-02-08T13:16:54;7.33;;;5.70;;
34928;SDS011;21133;48.048;7.724;2023-02-08T13:19:24;8.37;;;5.47;;
34928;SDS011;21133;48.048;7.724;2023-02-08T13:21:51;9.00;;;7.20;;
34928;SDS011;21133;48.048;7.724;2023-02-08T13:26:43;8.03;;;6.70;;
34928;SDS011;21133;48.048;7.724;2023-02-08T13:29:13;7.33;;;5.80;;
34928;SDS011;21133;48.048;7.724;2023-02-08T13:31:40;12.77;;;6.00;;
34928;SDS011;21133;48.048;7.724;2023-02-08T13:36:41;9.07;;;6.30;;
34928;SDS011;21133;48.048;7.724;2023-02-08T13:39:30;11.03;;;7.17;;
34928;SDS011;21133;48.048;7.724;2023-02-08T13:41:57;6.83;;;6.33;;
34928;SDS011;21133;48.048;7.724;2023-02-08T13:44:28;7.20;;;5.93;;
34928;SDS011;21133;48.048;7.724;2023-02-08T13:46:55;8.80;;;7.90;;
34928;SDS011;21133;48.048;7.724;2023-02-08T13:49:56;7.47;;;5.60;;
34928;SDS011;21133;48.048;7.724;2023-02-08T14:00:25;9.17;;;7.87;;
34928;SDS011;21133;48.048;7.724;2023-02-08T14:02:59;27.77;;;7.40;;
34928;SDS011;21133;48.048;7.724;2023-02-08T14:05:39;6.93;;;6.27;;
34928;SDS011;21133;48.048;7.724;2023-02-08T14:08:06;7.27;;;6.57;;
34928;SDS011;21133;48.048;7.724;2023-02-08T14:10:40;8.57;;;6.10;;
34928;SDS011;21133;48.048;7.724;2023-02-08T14:13:19;7.40;;;6.00;;
34928;SDS011;21133;48.048;7.724;2023-02-08T14:15:48;13.07;;;6.87;;
34928;SDS011;21133;48.048;7.724;2023-02-08T14:18:34;5.87;;;5.37;;
34928;SDS011;21133;48.048;7.724;2023-02-08T14:21:03;6.80;;;5.90;;
34928;SDS011;21133;48.048;7.724;2023-02-08T14:23:30;12.83;;;6.23;;
34928;SDS011;21133;48.048;7.724;2023-02-08T14:25:57;7.87;;;7.07;;
34928;SDS011;21133;48.048;7.724;2023-02-08T14:28:26;6.80;;;6.10;;
34928;SDS011;21133;48.048;7.724;2023-02-08T14:30:54;8.60;;;5.60;;
34928;SDS011;21133;48.048;7.724;2023-02-08T14:33:26;8.37;;;6.63;;
34928;SDS011;21133;48.048;7.724;2023-02-08T14:35:54;10.90;;;8.77;;
34928;SDS011;21133;48.048;7.724;2023-02-08T14:40:54;6.67;;;5.87;;
34928;SDS011;21133;48.048;7.724;2023-02-08T14:43:34;8.43;;;6.47;;
34928;SDS011;21133;48.048;7.724;2023-02-08T14:48:47;5.83;;;5.43;;
34928;SDS011;21133;48.048;7.724;2023-02-08T14:51:17;7.77;;;6.80;;
34928;SDS011;21133;48.048;7.724;2023-02-08T14:53:48;35.50;;;22.97;;
34928;SDS011;21133;48.048;7.724;2023-02-08T14:56:17;20.27;;;11.37;;
34928;SDS011;21133;48.048;7.724;2023-02-08T14:58:47;12.23;;;9.30;;
34928;SDS011;21133;48.048;7.724;2023-02-08T15:01:26;16.23;;;10.93;;
34928;SDS011;21133;48.048;7.724;2023-02-08T15:03:58;21.83;;;14.00;;
34928;SDS011;21133;48.048;7.724;2023-02-08T15:09:12;26.60;;;13.23;;
34928;SDS011;21133;48.048;7.724;2023-02-08T15:11:38;24.87;;;14.17;;
34928;SDS011;21133;48.048;7.724;2023-02-08T15:14:05;31.37;;;17.43;;
34928;SDS011;21133;48.048;7.724;2023-02-08T15:16:32;14.93;;;9.67;;
34928;SDS011;21133;48.048;7.724;2023-02-08T15:18:59;14.97;;;10.83;;
34928;SDS011;21133;48.048;7.724;2023-02-08T15:21:28;12.33;;;9.30;;
34928;SDS011;21133;48.048;7.724;2023-02-08T15:24:00;11.87;;;8.53;;
34928;SDS011;21133;48.048;7.724;2023-02-08T15:26:27;8.20;;;6.70;;
34928;SDS011;21133;48.048;7.724;2023-02-08T15:28:53;9.10;;;8.20;;
34928;SDS011;21133;48.048;7.724;2023-02-08T15:31:20;10.47;;;8.43;;
34928;SDS011;21133;48.048;7.724;2023-02-08T15:33:46;10.60;;;7.73;;
34928;SDS011;21133;48.048;7.724;2023-02-08T15:36:14;7.53;;;6.73;;
34928;SDS011;21133;48.048;7.724;2023-02-08T15:38:41;7.63;;;6.70;;
34928;SDS011;21133;48.048;7.724;2023-02-08T15:43:35;8.17;;;7.37;;
34928;SDS011;21133;48.048;7.724;2023-02-08T15:46:03;15.10;;;9.87;;
34928;SDS011;21133;48.048;7.724;2023-02-08T15:48:29;8.30;;;7.50;;
34928;SDS011;21133;48.048;7.724;2023-02-08T15:50:56;7.57;;;6.77;;
34928;SDS011;21133;48.048;7.724;2023-02-08T15:53:22;14.17;;;7.60;;
34928;SDS011;21133;48.048;7.724;2023-02-08T15:55:50;19.30;;;11.93;;
34928;SDS011;21133;48.048;7.724;2023-02-08T15:58:21;26.90;;;13.37;;
34928;SDS011;21133;48.048;7.724;2023-02-08T16:00:52;16.90;;;8.43;;
34928;SDS011;21133;48.048;7.724;2023-02-08T16:03:19;20.33;;;12.20;;
34928;SDS011;21133;48.048;7.724;2023-02-08T16:06:00;18.00;;;11.00;;
34928;SDS011;21133;48.048;7.724;2023-02-08T16:08:29;43.73;;;23.20;;
34928;SDS011;21133;48.048;7.724;2023-02-08T16:10:59;21.47;;;12.10;;
34928;SDS011;21133;48.048;7.724;2023-02-08T16:13:30;19.33;;;12.47;;
34928;SDS011;21133;48.048;7.724;2023-02-08T16:16:20;15.67;;;10.37;;
34928;SDS011;21133;48.048;7.724;2023-02-08T16:18:45;10.50;;;8.13;;
34928;SDS011;21133;48.048;7.724;2023-02-08T16:23:50;11.90;;;8.07;;
34928;SDS011;21133;48.048;7.724;2023-02-08T16:26:21;24.23;;;17.40;;
34928;SDS011;21133;48.048;7.724;2023-02-08T16:29:02;18.23;;;9.80;;
34928;SDS011;21133;48.048;7.724;2023-02-08T16:31:29;21.00;;;11.83;;
34928;SDS011;21133;48.048;7.724;2023-02-08T16:34:15;15.73;;;11.70;;
34928;SDS011;21133;48.048;7.724;2023-02-08T16:36:44;17.77;;;11.00;;
34928;SDS011;21133;48.048;7.724;2023-02-08T16:44:31;16.43;;;9.80;;
34928;SDS011;21133;48.048;7.724;2023-02-08T16:46:57;18.27;;;11.03;;
34928;SDS011;21133;48.048;7.724;2023-02-08T16:49:24;16.83;;;10.70;;
34928;SDS011;21133;48.048;7.724;2023-02-08T16:51:54;17.03;;;9.60;;
34928;SDS011;21133;48.048;7.724;2023-02-08T16:54:20;12.10;;;8.90;;